Crumpton, Maryland
Current Conditions -  °F | °C
As of 8:58 AM on Friday 31 Oct 2014 (Local Time) from KDOV Reporting Station
Clear Clear  
Wind Chill: 41°   Ceiling: Unl
Heat Index: 46°   Visibility: 10mi
Dew Point: 40°   Wind: 10mph
Humidity: 79%   Direction: 20°NNE
Pressure: 29.97"   Gusts: NA
Location:  39.24°N, 75.92°W
Report Text: KDOV 311258Z AUTO 02009KT 10SM CLR 08/04 A2997 RMK AO2 SLP152 T00770042
Loading
Personal Weather Stations






























Interactive Weather Map
Tropical Storm Tracking
New forecast layout! Learn more

10-Day Weather Forecast

Advertisements
Track Severe Weather on mobile